Time;durP1;ratioP1;P1;durP2;ratioP2;P2;SDS_P1;SDS_P2;PMS_P1;PMS_P2;Temp;Humidity;BMP_temperature;BMP_pressure;BME280_temperature;BME280_humidity;BME280_pressure;Samples;Min_cycle;Max_cycle;Signal;HPM_P1;HPM_P2
2024/04/14 00:07:25;;;;;;;15.60;8.80;;;;;;;15.85;86.26;100299.14;667337;1276;140469;-81
2024/04/14 00:22:29;;;;;;;12.50;8.70;;;;;;;15.84;86.88;100265.17;665451;1288;138569;-81
2024/04/14 00:37:32;;;;;;;16.70;9.80;;;;;;;15.79;87.41;100236.52;666534;1271;139414;-81
2024/04/14 00:52:35;;;;;;;17.40;11.30;;;;;;;15.54;88.40;100213.98;666497;1275;139588;-80
2024/04/14 01:07:39;;;;;;;17.40;10.60;;;;;;;15.31;90.33;100182.39;665099;1276;139422;-81
2024/04/14 01:22:42;;;;;;;18.60;11.80;;;;;;;15.19;92.25;100160.88;665915;1274;139711;-81
2024/04/14 01:37:45;;;;;;;20.40;12.00;;;;;;;15.07;93.63;100141.36;667452;1271;139735;-80
2024/04/14 01:52:48;;;;;;;20.50;11.30;;;;;;;15.01;95.64;100122.48;664583;1275;139172;-81
2024/04/14 02:07:54;;;;;;;15.30;10.80;;;;;;;15.03;96.38;100090.22;664849;1276;139322;-81
2024/04/14 02:22:57;;;;;;;17.20;11.20;;;;;;;15.06;97.60;100056.56;665640;1275;140134;-82
2024/04/14 02:38:00;;;;;;;19.00;10.30;;;;;;;15.10;97.47;100022.92;666540;1275;139403;-81
2024/04/14 02:53:03;;;;;;;19.30;10.70;;;;;;;15.10;98.11;100009.50;665700;1274;139952;-81
2024/04/14 03:08:07;;;;;;;13.90;10.10;;;;;;;15.26;98.38;99990.10;665160;1273;140398;-80
2024/04/14 03:23:10;;;;;;;14.40;10.50;;;;;;;15.49;97.45;99967.08;666215;1275;140363;-81
2024/04/14 03:38:13;;;;;;;12.40;9.40;;;;;;;15.55;98.59;99921.87;669445;1276;139855;-81
2024/04/14 03:53:16;;;;;;;15.20;9.50;;;;;;;15.67;98.36;99904.99;670075;1272;139923;-82
2024/04/14 04:08:21;;;;;;;16.20;8.30;;;;;;;15.82;97.86;99894.73;668601;1286;140676;-81
2024/04/14 04:23:26;;;;;;;13.60;7.70;;;;;;;15.89;97.54;99874.41;670679;1276;140430;-81
2024/04/14 04:38:29;;;;;;;11.40;7.20;;;;;;;15.97;96.92;99868.31;668276;1276;140215;-81
2024/04/14 04:53:32;;;;;;;11.40;6.80;;;;;;;16.26;95.07;99845.22;671986;1269;140806;-81
2024/04/14 05:08:35;;;;;;;11.00;6.30;;;;;;;16.41;93.73;99842.04;673777;1268;138088;-81
2024/04/14 05:23:39;;;;;;;11.20;5.60;;;;;;;16.68;92.27;99846.21;675254;1267;139878;-81
2024/04/14 05:38:44;;;;;;;8.00;5.20;;;;;;;17.04;90.57;99841.52;673308;1270;138623;-81
2024/04/14 05:53:50;;;;;;;7.70;5.40;;;;;;;17.33;89.05;99841.00;677778;1269;138582;-81
2024/04/14 06:08:54;;;;;;;8.30;4.90;;;;;;;17.44;87.97;99824.33;681455;1267;138266;-81
2024/04/14 06:23:57;;;;;;;6.80;4.60;;;;;;;17.40;87.90;99810.95;680489;1267;140373;-79
2024/04/14 06:39:00;;;;;;;8.30;5.90;;;;;;;17.39;88.04;99802.23;680661;1270;139440;-79
2024/04/14 06:54:04;;;;;;;13.50;6.00;;;;;;;17.56;88.43;99807.77;680581;1269;138755;-81
2024/04/14 07:09:07;;;;;;;10.00;5.30;;;;;;;17.93;88.16;99809.49;680507;1266;139513;-81
2024/04/14 07:24:10;;;;;;;10.70;6.50;;;;;;;18.43;86.84;99816.27;680854;1265;139716;-80
2024/04/14 07:39:14;;;;;;;15.70;9.70;;;;;;;18.55;86.27;99828.82;680572;1265;139425;-81
2024/04/14 07:54:27;;;;;;;9.80;6.10;;;;;;;19.73;84.51;99831.36;680649;1268;139709;-81
2024/04/14 08:09:30;;;;;;;17.00;9.40;;;;;;;20.25;80.47;99843.14;680301;1268;138880;-81
2024/04/14 08:24:34;;;;;;;9.20;5.40;;;;;;;19.87;79.69;99854.95;680057;1266;141033;-82
2024/04/14 08:39:38;;;;;;;7.10;5.70;;;;;;;19.90;79.83;99857.67;680801;1268;138957;-82
2024/04/14 08:54:42;;;;;;;15.40;8.50;;;;;;;19.79;80.14;99870.52;681998;1264;138421;-80
2024/04/14 09:09:49;;;;;;;43.10;14.50;;;;;;;19.23;77.80;99901.68;681944;1263;139989;-81
2024/04/14 09:24:52;;;;;;;11.80;5.20;;;;;;;19.83;74.09;99916.81;682050;1259;138909;-81
2024/04/14 09:39:57;;;;;;;9.80;3.10;;;;;;;20.09;69.51;99927.88;681956;1263;139037;-82
2024/04/14 09:55:00;;;;;;;8.10;1.90;;;;;;;20.18;65.08;99945.36;681908;1263;138204;-80
2024/04/14 10:10:07;;;;;;;6.70;2.00;;;;;;;20.11;61.88;99945.95;682063;1263;138581;-80
2024/04/14 10:25:18;;;;;;;9.70;2.10;;;;;;;20.45;59.52;99955.04;682021;1263;138700;-81
2024/04/14 10:40:22;;;;;;;6.50;2.80;;;;;;;20.41;57.84;99969.01;681653;1262;351997;-80
2024/04/14 10:55:25;;;;;;;4.50;2.50;;;;;;;20.12;57.19;99997.55;682175;1263;138828;-81
2024/04/14 11:10:29;;;;;;;9.80;1.80;;;;;;;19.98;56.25;100015.23;682049;1260;137627;-81
2024/04/14 11:25:33;;;;;;;6.50;2.60;;;;;;;20.38;55.75;100019.66;682161;1263;138678;-83
2024/04/14 11:40:35;;;;;;;13.20;4.20;;;;;;;20.80;53.81;100027.14;682107;1262;138667;-81
2024/04/14 11:55:39;;;;;;;6.70;3.90;;;;;;;21.56;52.65;100024.77;682288;1264;139278;-81
2024/04/14 12:10:43;;;;;;;6.60;2.80;;;;;;;21.55;49.97;100026.97;682079;1263;138147;-81
2024/04/14 12:25:46;;;;;;;6.30;2.20;;;;;;;21.32;46.03;100042.95;682127;1262;139070;-80
2024/04/14 12:40:49;;;;;;;8.40;3.80;;;;;;;21.19;43.57;100038.13;682103;1264;138804;-81
2024/04/14 12:55:52;;;;;;;7.10;2.50;;;;;;;21.31;42.58;100041.78;682307;1262;139738;-81
2024/04/14 13:10:55;;;;;;;10.60;2.90;;;;;;;21.22;40.45;100036.91;682124;1260;138664;-81
2024/04/14 13:25:58;;;;;;;8.40;2.40;;;;;;;20.69;38.41;100044.68;682207;1262;138166;-81
2024/04/14 13:41:02;;;;;;;20.70;2.20;;;;;;;19.93;36.83;100056.67;682078;1263;138292;-80
2024/04/14 13:56:06;;;;;;;8.00;2.20;;;;;;;19.75;36.29;100059.88;682723;1263;137967;-81
2024/04/14 14:11:09;;;;;;;11.10;3.90;;;;;;;19.48;36.64;100056.13;682035;1279;139277;-80
2024/04/14 14:26:12;;;;;;;21.50;9.50;;;;;;;19.83;38.24;100064.59;681335;1267;138919;-80
2024/04/14 14:41:15;;;;;;;20.80;10.00;;;;;;;19.49;36.28;100067.39;681087;1278;138533;-82
2024/04/14 14:56:19;;;;;;;93.50;40.80;;;;;;;19.32;37.18;100084.01;681168;1266;138520;-82
2024/04/14 15:11:22;;;;;;;36.40;14.80;;;;;;;18.96;36.15;100075.19;680931;1270;139273;-82
2024/04/14 15:26:25;;;;;;;14.40;5.20;;;;;;;18.85;37.63;100084.09;681022;1266;138981;-82
2024/04/14 15:41:30;;;;;;;14.00;6.30;;;;;;;18.74;37.62;100080.90;680967;1269;140362;-81
2024/04/14 15:56:33;;;;;;;6.90;2.00;;;;;;;18.43;37.95;100090.02;680609;1264;139173;-81
2024/04/14 16:11:36;;;;;;;22.50;8.50;;;;;;;17.99;38.62;100076.95;680992;1268;138453;-82
2024/04/14 16:26:39;;;;;;;15.10;6.10;;;;;;;17.73;39.63;100071.17;680917;1267;139490;-82
2024/04/14 16:41:42;;;;;;;18.00;9.10;;;;;;;17.36;40.32;100071.98;680962;1267;138368;-82
2024/04/14 16:56:45;;;;;;;48.10;24.00;;;;;;;16.71;39.88;100079.26;680685;1270;138810;-81
2024/04/14 17:11:48;;;;;;;78.60;40.10;;;;;;;16.09;40.73;100082.30;680473;1267;139264;-84
2024/04/14 17:26:52;;;;;;;260.70;114.50;;;;;;;15.47;42.30;100087.49;680642;1268;138944;-83
2024/04/14 17:41:59;;;;;;;81.60;40.90;;;;;;;15.30;43.97;100097.02;680612;1266;139135;-83
2024/04/14 17:57:02;;;;;;;161.20;68.40;;;;;;;14.74;44.74;100104.52;680817;1271;138712;-83
2024/04/14 18:12:08;;;;;;;165.80;66.10;;;;;;;14.00;46.56;100114.61;680883;1270;139144;-83
2024/04/14 18:27:22;;;;;;;54.70;27.00;;;;;;;13.27;47.97;100132.90;680877;1263;140230;-83
2024/04/14 18:42:26;;;;;;;43.70;19.00;;;;;;;13.06;48.06;100138.70;680804;1264;140329;-81
2024/04/14 18:57:29;;;;;;;57.00;26.30;;;;;;;13.05;47.99;100144.45;680822;1264;138639;-81
2024/04/14 19:12:32;;;;;;;66.90;31.80;;;;;;;12.78;48.79;100137.52;680945;1266;138675;-82
2024/04/14 19:27:36;;;;;;;66.30;33.70;;;;;;;12.35;49.53;100132.20;680758;1263;138767;-82
2024/04/14 19:42:41;;;;;;;37.80;18.10;;;;;;;11.70;50.86;100131.42;680590;1266;139331;-81
2024/04/14 19:57:44;;;;;;;105.30;37.20;;;;;;;11.19;52.47;100146.89;680876;1267;138167;-83
2024/04/14 20:12:47;;;;;;;32.40;14.20;;;;;;;11.09;53.60;100154.77;680921;1263;139386;-82
2024/04/14 20:27:51;;;;;;;55.30;24.00;;;;;;;11.25;53.83;100145.11;680862;1266;138422;-82
2024/04/14 20:42:54;;;;;;;23.40;11.20;;;;;;;11.29;54.33;100151.92;680823;1264;139820;-82
2024/04/14 20:57:59;;;;;;;9.90;4.50;;;;;;;10.98;55.10;100158.94;680909;1268;138539;-82
2024/04/14 21:13:02;;;;;;;26.30;7.30;;;;;;;10.91;56.27;100166.27;680855;1263;138475;-81
2024/04/14 21:28:05;;;;;;;18.60;6.00;;;;;;;10.81;57.66;100167.49;681018;1266;138897;-81
2024/04/14 21:43:09;;;;;;;19.50;5.60;;;;;;;10.70;58.09;100159.52;680846;1265;138557;-81
2024/04/14 21:58:13;;;;;;;19.50;5.60;;;;;;;10.46;58.82;100142.10;681142;1267;138152;-82
2024/04/14 22:13:20;;;;;;;15.10;5.40;;;;;;;10.20;59.44;100133.91;681188;1263;137989;-82
2024/04/14 22:28:23;;;;;;;15.60;5.30;;;;;;;9.69;59.79;100129.61;681105;1266;138384;-82
2024/04/14 22:43:26;;;;;;;11.70;4.70;;;;;;;9.43;61.57;100132.56;681065;1268;159261;-82
2024/04/14 22:58:29;;;;;;;11.60;3.50;;;;;;;9.31;62.27;100117.16;682156;1267;137999;-82
2024/04/14 23:13:32;;;;;;;15.30;4.20;;;;;;;9.02;63.80;100099.22;681815;1266;138085;-82
2024/04/14 23:28:36;;;;;;;10.90;3.60;;;;;;;8.57;65.02;100085.82;681070;1266;138261;-82
2024/04/14 23:43:39;;;;;;;11.50;3.90;;;;;;;8.26;65.92;100081.75;681025;1265;139003;-82
2024/04/14 23:58:42;;;;;;;8.90;3.80;;;;;;;8.13;66.07;100062.72;681179;1266;139021;-82
